Weather at Bournemouth Airport

Public forecast

Using degrees Celsius for public forecast. Weather courtesy of forecast.io.

Current aviation weather report (METAR) for Bournemouth Airport

Report is more than 2 hours old.

Retrieved 2020/10/25 19:50 UTC (5 hours ago):

EGHH 251950Z 23005KT 9999 FEW032 09/07 Q0996 RESHRA

Aviation forecast (TAF) for Bournemouth Airport

Forecast is more than 12 hours old.

Retrieved 2020/02/21 21:06 UTC (8 months ago):

TAF EGHH 210200Z 2021/2123 CNL